createdAt,value
2022-12-27T00:02:20.441Z,1.05
2022-12-27T00:04:47.300Z,1.15
2022-12-27T00:07:13.883Z,2.05
2022-12-27T00:09:40.470Z,1.55
2022-12-27T00:12:07.687Z,3.88
2022-12-27T00:14:34.258Z,1.00
2022-12-27T00:17:00.791Z,0.70
2022-12-27T00:19:27.411Z,1.00
2022-12-27T00:21:54.006Z,0.95
2022-12-27T00:24:20.620Z,0.60
2022-12-27T00:26:47.188Z,1.08
2022-12-27T00:29:13.797Z,0.82
2022-12-27T00:31:40.435Z,0.95
2022-12-27T00:34:08.601Z,1.52
2022-12-27T00:36:35.218Z,1.00
2022-12-27T00:39:02.212Z,1.08
2022-12-27T00:41:29.362Z,0.73
2022-12-27T00:43:56.282Z,0.60
2022-12-27T00:46:22.911Z,0.52
2022-12-27T00:48:49.530Z,1.52
2022-12-27T00:51:18.795Z,1.85
2022-12-27T00:53:46.599Z,2.03
2022-12-27T00:56:20.693Z,1.25
2022-12-27T00:58:47.429Z,1.38
2022-12-27T01:01:19.564Z,1.20
2022-12-27T01:03:47.304Z,0.63
2022-12-27T01:06:17.217Z,1.55
2022-12-27T01:08:45.040Z,0.70
2022-12-27T01:11:13.675Z,0.70
2022-12-27T01:13:41.166Z,0.90
2022-12-27T01:16:19.724Z,0.80
2022-12-27T01:18:47.106Z,1.95
2022-12-27T01:21:17.321Z,0.95
2022-12-27T01:23:44.464Z,0.68
2022-12-27T01:26:17.152Z,0.50
2022-12-27T01:28:45.067Z,1.33
2022-12-27T01:31:14.932Z,2.03
2022-12-27T01:33:41.667Z,0.77
2022-12-27T01:36:09.668Z,1.17
2022-12-27T01:38:36.306Z,0.57
2022-12-27T01:41:22.867Z,0.73
2022-12-27T01:43:49.488Z,1.48
2022-12-27T01:46:16.791Z,1.60
2022-12-27T01:48:43.732Z,2.17
2022-12-27T01:51:11.470Z,2.00
2022-12-27T01:53:41.828Z,1.08
2022-12-27T01:56:15.582Z,3.30
2022-12-27T01:58:46.352Z,1.75
2022-12-27T02:01:21.254Z,1.35
2022-12-27T02:03:57.944Z,0.88
2022-12-27T02:06:27.662Z,1.13
2022-12-27T02:09:12.457Z,1.17
2022-12-27T02:11:53.129Z,1.20
2022-12-27T02:15:10.949Z,1.60
2022-12-27T02:17:54.403Z,1.88
2022-12-27T02:20:24.605Z,2.20
2022-12-27T02:23:37.695Z,3.35
2022-12-27T02:26:14.768Z,1.00
2022-12-27T02:29:00.003Z,1.33
2022-12-27T02:31:26.965Z,1.33
2022-12-27T02:33:55.997Z,1.35
2022-12-27T02:36:27.522Z,2.10
2022-12-27T02:38:58.911Z,1.88
2022-12-27T02:44:30.159Z,2.35
2022-12-27T02:47:16.073Z,2.15
2022-12-27T02:50:05.199Z,1.50
2022-12-27T02:53:08.266Z,1.92
2022-12-27T02:55:40.751Z,3.20
2022-12-27T02:58:34.688Z,1.75
2022-12-27T03:02:02.012Z,2.47
2022-12-27T03:04:40.893Z,1.90
2022-12-27T03:07:36.611Z,3.13
2022-12-27T03:10:51.713Z,1.65
2022-12-27T03:14:06.266Z,2.40
2022-12-27T03:16:55.543Z,2.53
2022-12-27T03:19:47.729Z,1.95
2022-12-27T03:22:36.054Z,1.05
2022-12-27T03:25:22.841Z,1.45
2022-12-27T03:28:10.644Z,1.70
2022-12-27T03:30:58.111Z,1.73
2022-12-27T03:33:27.355Z,2.45
2022-12-27T03:36:34.637Z,2.65
2022-12-27T03:39:18.946Z,1.83
2022-12-27T03:42:12.204Z,2.13
2022-12-27T03:44:39.466Z,1.45
2022-12-27T03:47:11.326Z,1.58
2022-12-27T03:49:37.792Z,2.03
2022-12-27T03:52:13.505Z,3.75
2022-12-27T03:54:43.075Z,2.05
2022-12-27T03:57:13.073Z,2.65
2022-12-27T03:59:39.717Z,1.42
2022-12-27T04:02:07.191Z,0.98
2022-12-27T04:04:34.190Z,1.30
2022-12-27T04:07:01.069Z,4.20
2022-12-27T04:09:47.193Z,3.28
2022-12-27T04:12:32.822Z,4.80
2022-12-27T04:15:18.148Z,1.20
2022-12-27T04:18:03.683Z,5.32
2022-12-27T04:20:49.645Z,5.07
2022-12-27T04:23:35.011Z,2.70
2022-12-27T04:26:19.970Z,1.65
2022-12-27T04:29:04.801Z,1.40
2022-12-27T04:31:49.654Z,1.65
2022-12-27T04:34:34.599Z,2.00
2022-12-27T04:37:01.200Z,2.58
2022-12-27T04:39:27.788Z,2.22
2022-12-27T04:42:13.107Z,1.90
2022-12-27T04:44:57.898Z,1.50
2022-12-27T04:47:43.743Z,3.35
2022-12-27T04:50:45.637Z,3.58
2022-12-27T04:53:33.587Z,1.73
2022-12-27T04:56:00.798Z,1.80
2022-12-27T04:58:28.582Z,2.15
2022-12-27T05:01:17.804Z,3.78
2022-12-27T05:03:46.584Z,2.80
2022-12-27T05:06:13.455Z,1.42
2022-12-27T05:08:59.690Z,2.10
2022-12-27T05:11:45.113Z,2.20
2022-12-27T05:14:14.522Z,1.67
2022-12-27T05:16:43.631Z,2.08
2022-12-27T05:19:12.823Z,4.35
2022-12-27T05:22:03.431Z,2.42
2022-12-27T05:24:49.235Z,3.95
2022-12-27T05:27:16.231Z,2.38
2022-12-27T05:29:42.924Z,4.18
2022-12-27T05:32:13.296Z,4.35
2022-12-27T05:34:40.633Z,5.20
2022-12-27T05:37:07.553Z,4.75
2022-12-27T05:39:34.122Z,4.13
2022-12-27T05:42:00.917Z,2.58
2022-12-27T05:44:27.673Z,4.38
2022-12-27T05:46:55.428Z,5.90
2022-12-27T05:49:22.152Z,4.50
2022-12-27T05:51:49.039Z,5.97
2022-12-27T05:54:15.757Z,4.60
2022-12-27T05:56:42.488Z,2.20
2022-12-27T05:59:09.062Z,3.15
2022-12-27T06:01:35.817Z,5.05
2022-12-27T06:04:02.646Z,6.88
2022-12-27T06:06:29.470Z,7.57
2022-12-27T06:08:56.074Z,9.10
2022-12-27T06:11:22.610Z,22.55
2022-12-27T06:13:52.608Z,17.00
2022-12-27T06:16:21.665Z,14.13
2022-12-27T06:18:48.252Z,13.75
2022-12-27T06:21:19.133Z,11.77
2022-12-27T06:23:46.360Z,15.10
2022-12-27T06:26:16.877Z,13.88
2022-12-27T06:28:43.409Z,10.93
2022-12-27T06:31:10.419Z,9.25
2022-12-27T06:33:36.989Z,4.30
2022-12-27T06:36:12.265Z,7.15
2022-12-27T06:38:39.245Z,5.95
2022-12-27T06:41:08.397Z,4.75
2022-12-27T06:43:35.192Z,4.57
2022-12-27T06:46:04.050Z,3.45
2022-12-27T06:48:31.085Z,3.47
2022-12-27T06:50:57.842Z,6.75
2022-12-27T06:53:24.696Z,10.13
2022-12-27T06:55:51.262Z,5.00
2022-12-27T06:58:17.870Z,4.95
2022-12-27T07:00:44.423Z,6.40
2022-12-27T07:03:11.012Z,3.88
2022-12-27T07:05:38.364Z,4.03
2022-12-27T07:08:06.023Z,4.38
2022-12-27T07:10:32.587Z,5.10
2022-12-27T07:12:59.443Z,4.68
2022-12-27T07:15:26.056Z,5.97
2022-12-27T07:17:52.628Z,6.85
2022-12-27T07:20:19.232Z,4.15
2022-12-27T07:22:45.856Z,4.68
2022-12-27T07:25:12.621Z,3.75
2022-12-27T07:27:39.249Z,3.63
2022-12-27T07:30:06.383Z,3.60
2022-12-27T07:32:33.438Z,6.88
2022-12-27T07:35:00.225Z,6.03
2022-12-27T07:37:26.818Z,7.70
2022-12-27T07:39:53.395Z,7.00
2022-12-27T07:42:20.109Z,10.98
2022-12-27T07:44:48.276Z,8.70
2022-12-27T07:47:14.864Z,6.85
2022-12-27T07:49:41.468Z,9.20
2022-12-27T07:52:08.064Z,4.15
2022-12-27T07:54:34.669Z,5.78
2022-12-27T07:57:01.241Z,5.13
2022-12-27T07:59:27.837Z,5.50
2022-12-27T08:02:06.856Z,6.43
2022-12-27T08:04:37.198Z,4.93
2022-12-27T08:07:15.728Z,9.43
2022-12-27T08:09:45.334Z,8.43
2022-12-27T08:12:13.489Z,7.95
2022-12-27T08:14:40.932Z,8.77
2022-12-27T08:17:16.304Z,10.52
2022-12-27T08:19:42.980Z,8.32
2022-12-27T08:22:13.536Z,9.52
2022-12-27T08:24:41.525Z,8.50
2022-12-27T08:27:08.457Z,8.82
2022-12-27T08:29:35.288Z,6.88
2022-12-27T08:32:03.477Z,7.55
2022-12-27T08:34:30.058Z,5.57
2022-12-27T08:36:57.002Z,6.05
2022-12-27T08:39:24.400Z,4.38
2022-12-27T08:41:53.912Z,6.68
2022-12-27T08:44:20.665Z,4.00
2022-12-27T08:46:47.555Z,4.57
2022-12-27T08:49:14.212Z,5.05
2022-12-27T08:51:41.672Z,7.18
2022-12-27T08:54:08.938Z,7.75
2022-12-27T08:56:36.121Z,6.93
2022-12-27T08:59:03.349Z,6.38
2022-12-27T09:01:41.709Z,4.60
2022-12-27T09:04:12.452Z,6.15
2022-12-27T09:06:41.817Z,3.88
2022-12-27T09:09:13.613Z,3.33
2022-12-27T09:11:40.178Z,4.78
2022-12-27T09:14:06.938Z,2.90
2022-12-27T09:16:44.452Z,6.47
2022-12-27T09:19:11.667Z,7.63
2022-12-27T09:21:41.161Z,5.85
2022-12-27T09:24:45.627Z,4.07
2022-12-27T09:27:15.779Z,4.03
2022-12-27T09:29:48.409Z,3.72
2022-12-27T09:32:15.338Z,6.90
2022-12-27T09:34:42.091Z,3.78
2022-12-27T09:37:09.580Z,3.15
2022-12-27T09:39:46.645Z,3.97
2022-12-27T09:43:16.231Z,4.38
2022-12-27T09:46:59.208Z,3.58
2022-12-27T09:49:54.482Z,3.60
2022-12-27T09:53:30.121Z,3.47
2022-12-27T09:56:40.903Z,4.43
2022-12-27T09:59:46.141Z,2.33
2022-12-27T10:02:23.880Z,3.22
2022-12-27T10:05:19.191Z,4.10
2022-12-27T10:07:56.768Z,3.63
2022-12-27T10:10:51.452Z,2.22
2022-12-27T10:13:17.985Z,2.42
2022-12-27T10:16:10.502Z,4.93
2022-12-27T10:18:44.209Z,2.45
2022-12-27T10:21:27.880Z,2.08
2022-12-27T10:23:58.874Z,3.70
2022-12-27T10:26:26.510Z,4.57
2022-12-27T10:29:09.495Z,2.55
2022-12-27T10:31:41.405Z,2.95
2022-12-27T10:34:10.886Z,3.08
2022-12-27T10:36:41.121Z,3.20
2022-12-27T10:39:18.979Z,4.88
2022-12-27T10:41:51.780Z,4.53
2022-12-27T10:44:18.347Z,4.53
2022-12-27T10:46:52.195Z,3.35
2022-12-27T10:49:31.247Z,2.10
2022-12-27T10:52:07.295Z,3.83
2022-12-27T10:54:34.622Z,3.75
2022-12-27T10:57:33.985Z,3.55
2022-12-27T11:00:23.628Z,2.38
2022-12-27T11:02:50.495Z,5.07
2022-12-27T11:05:35.115Z,4.72
2022-12-27T11:08:20.896Z,3.78
2022-12-27T11:10:47.415Z,2.05
2022-12-27T11:13:19.044Z,3.17
2022-12-27T11:15:58.527Z,3.60
2022-12-27T11:18:26.511Z,4.85
2022-12-27T11:20:56.120Z,4.47
2022-12-27T11:23:25.491Z,2.67
2022-12-27T11:26:04.316Z,3.92
2022-12-27T11:28:38.167Z,4.35
2022-12-27T11:31:11.655Z,3.67
2022-12-27T11:33:41.054Z,2.92
2022-12-27T11:36:10.862Z,2.85
2022-12-27T11:38:39.788Z,2.50
2022-12-27T11:41:27.732Z,2.90
2022-12-27T11:44:01.574Z,4.05
2022-12-27T11:46:36.843Z,2.65
2022-12-27T11:49:06.842Z,9.55
2022-12-27T11:51:57.381Z,9.57
2022-12-27T11:55:14.921Z,4.32
2022-12-27T11:58:19.066Z,3.83
2022-12-27T12:01:05.283Z,4.25
2022-12-27T12:04:06.789Z,2.78
2022-12-27T12:06:51.919Z,3.70
2022-12-27T12:09:48.385Z,3.25
2022-12-27T12:12:52.206Z,3.10
2022-12-27T12:15:18.687Z,3.22
2022-12-27T12:18:03.112Z,3.95
2022-12-27T12:20:32.327Z,3.22
2022-12-27T12:23:01.867Z,3.08
2022-12-27T12:25:41.818Z,2.35
2022-12-27T12:29:00.307Z,3.10
2022-12-27T12:31:53.393Z,2.95
2022-12-27T12:34:56.191Z,4.32
2022-12-27T12:37:34.558Z,2.90
2022-12-27T12:40:19.509Z,3.70
2022-12-27T12:43:29.206Z,2.05
2022-12-27T12:46:14.325Z,3.83
2022-12-27T12:49:11.614Z,1.92
2022-12-27T12:51:47.296Z,4.53
2022-12-27T12:54:42.032Z,2.40
2022-12-27T12:57:30.254Z,2.40
2022-12-27T13:00:15.418Z,4.00
2022-12-27T13:03:10.201Z,2.95
2022-12-27T13:05:57.748Z,4.07
2022-12-27T13:08:44.510Z,4.82
2022-12-27T13:11:25.109Z,2.55
2022-12-27T13:14:10.533Z,2.17
2022-12-27T13:16:52.396Z,3.50
2022-12-27T13:19:44.859Z,3.60
2022-12-27T13:22:16.956Z,3.92
2022-12-27T13:25:17.670Z,3.40
2022-12-27T13:27:54.397Z,2.75
2022-12-27T13:30:25.079Z,2.65
2022-12-27T13:33:00.782Z,3.10
2022-12-27T13:35:48.747Z,4.72
2022-12-27T13:38:26.614Z,3.20
2022-12-27T13:41:29.894Z,3.80
2022-12-27T13:44:00.138Z,3.38
2022-12-27T13:46:47.574Z,1.98
2022-12-27T13:49:31.733Z,3.35
2022-12-27T13:52:16.530Z,6.32
2022-12-27T13:55:22.018Z,3.03
2022-12-27T13:58:20.717Z,3.97
2022-12-27T14:01:05.857Z,2.25
2022-12-27T14:04:09.127Z,4.03
2022-12-27T14:07:03.198Z,2.38
2022-12-27T14:09:29.678Z,6.78
2022-12-27T14:12:33.864Z,4.95
2022-12-27T14:15:04.326Z,4.78
2022-12-27T14:17:43.089Z,4.40
2022-12-27T14:20:21.748Z,6.10
2022-12-27T14:23:13.371Z,4.45
2022-12-27T14:28:47.566Z,3.50
2022-12-27T14:31:32.845Z,3.50
2022-12-27T14:34:18.152Z,4.47
2022-12-27T14:37:23.381Z,5.40
2022-12-27T14:40:21.044Z,5.78
2022-12-27T14:42:59.694Z,6.82
2022-12-27T14:45:38.477Z,6.82
2022-12-27T14:48:36.236Z,7.50
2022-12-27T14:54:36.652Z,6.57
2022-12-27T14:57:27.456Z,6.18
2022-12-27T15:00:25.339Z,5.65
2022-12-27T15:02:54.935Z,6.53
2022-12-27T15:09:27.677Z,10.15
2022-12-27T15:12:02.917Z,15.15
2022-12-27T15:14:55.075Z,38.88
2022-12-27T15:17:38.365Z,35.42
2022-12-27T15:20:24.746Z,28.48
2022-12-27T15:23:32.450Z,19.00
2022-12-27T15:26:23.744Z,14.52
2022-12-27T15:29:08.825Z,14.63
2022-12-27T15:31:47.523Z,20.65
2022-12-27T15:34:47.063Z,16.27
2022-12-27T15:37:44.482Z,4.78
2022-12-27T15:40:33.064Z,3.83
2022-12-27T15:43:11.827Z,1.85
2022-12-27T15:46:09.491Z,2.33
2022-12-27T15:48:53.335Z,2.55
2022-12-27T15:51:36.766Z,6.70
2022-12-27T15:54:41.170Z,6.80
2022-12-27T15:57:20.365Z,5.28
2022-12-27T15:59:51.104Z,5.32
2022-12-27T16:02:17.798Z,5.90
2022-12-27T16:04:53.752Z,4.55
2022-12-27T16:07:39.404Z,5.22
2022-12-27T16:10:33.305Z,9.27
2022-12-27T16:13:09.073Z,6.60
2022-12-27T16:15:54.927Z,6.90
2022-12-27T16:18:21.537Z,7.63
2022-12-27T16:20:57.594Z,6.70
2022-12-27T16:23:27.515Z,5.35
2022-12-27T16:26:07.679Z,4.03
2022-12-27T16:28:37.172Z,6.13
2022-12-27T16:31:11.611Z,12.48
2022-12-27T16:33:41.785Z,11.77
2022-12-27T16:36:11.449Z,7.13
2022-12-27T16:39:03.776Z,9.70
2022-12-27T16:41:39.358Z,8.70
2022-12-27T16:44:22.087Z,7.22
2022-12-27T16:47:07.702Z,7.88
2022-12-27T16:49:46.311Z,10.23
2022-12-27T16:52:12.922Z,7.95
2022-12-27T16:54:45.604Z,9.75
2022-12-27T16:57:25.342Z,10.20
2022-12-27T17:00:02.780Z,11.95
2022-12-27T17:02:41.951Z,11.93
2022-12-27T17:05:14.985Z,36.70
2022-12-27T17:07:44.318Z,27.20
2022-12-27T17:10:30.221Z,22.60
2022-12-27T17:13:18.667Z,17.80
2022-12-27T17:16:20.139Z,17.15
2022-12-27T17:18:59.534Z,13.85
2022-12-27T17:21:36.854Z,12.10
2022-12-27T17:24:15.322Z,6.47
2022-12-27T17:26:56.743Z,7.78
2022-12-27T17:29:57.574Z,6.57
2022-12-27T17:32:36.430Z,9.30
2022-12-27T17:35:29.154Z,38.63
2022-12-27T17:38:07.811Z,22.50
2022-12-27T17:40:52.857Z,10.32
2022-12-27T17:43:54.905Z,10.68
2022-12-27T17:46:54.997Z,6.80
2022-12-27T17:49:30.266Z,5.35
2022-12-27T17:52:16.716Z,8.95
2022-12-27T17:55:01.933Z,3.50
2022-12-27T17:57:47.334Z,3.72
2022-12-27T18:00:30.928Z,5.85
2022-12-27T18:03:02.307Z,3.88
2022-12-27T18:08:03.298Z,6.00
2022-12-27T18:10:31.746Z,2.30
2022-12-27T18:13:00.955Z,6.68
2022-12-27T18:15:30.072Z,3.75
2022-12-27T18:18:01.151Z,3.15
2022-12-27T18:20:27.832Z,4.63
2022-12-27T18:23:00.393Z,4.25
2022-12-27T18:25:32.851Z,3.63
2022-12-27T18:28:02.644Z,2.60
2022-12-27T18:30:40.267Z,3.22
2022-12-27T18:33:07.233Z,2.70
2022-12-27T18:35:34.752Z,6.72
2022-12-27T18:38:06.417Z,5.85
2022-12-27T18:40:34.197Z,5.05
2022-12-27T18:43:00.928Z,4.93
2022-12-27T18:45:33.602Z,5.38
2022-12-27T18:48:04.445Z,10.15
2022-12-27T18:50:34.771Z,9.43
2022-12-27T18:53:05.884Z,18.58
2022-12-27T18:55:33.402Z,21.65
2022-12-27T18:58:20.229Z,16.70
2022-12-27T19:00:56.526Z,14.90
2022-12-27T19:03:23.254Z,18.08
2022-12-27T19:06:04.371Z,19.02
2022-12-27T19:08:43.765Z,22.15
2022-12-27T19:11:20.308Z,25.17
2022-12-27T19:13:50.641Z,16.85
2022-12-27T19:16:25.501Z,10.98
2022-12-27T19:19:07.499Z,6.72
2022-12-27T19:21:37.855Z,9.57
2022-12-27T19:24:31.795Z,7.82
2022-12-27T19:27:14.718Z,8.70
2022-12-27T19:29:50.192Z,8.63
2022-12-27T19:32:21.424Z,9.60
2022-12-27T19:34:52.140Z,10.80
2022-12-27T19:37:19.294Z,7.68
2022-12-27T19:39:48.245Z,8.48
2022-12-27T19:42:26.014Z,9.40
2022-12-27T19:44:52.656Z,9.32
2022-12-27T19:47:19.286Z,12.05
2022-12-27T19:49:45.929Z,12.35
2022-12-27T19:52:18.154Z,12.90
2022-12-27T19:54:46.053Z,14.48
2022-12-27T19:57:12.878Z,16.88
2022-12-27T19:59:39.622Z,12.15
2022-12-27T20:02:06.350Z,15.13
2022-12-27T20:04:33.142Z,13.75
2022-12-27T20:07:00.361Z,14.82
2022-12-27T20:09:28.234Z,12.93
2022-12-27T20:11:54.882Z,12.77
2022-12-27T20:14:21.498Z,13.27
2022-12-27T20:16:48.402Z,17.88
2022-12-27T20:19:16.601Z,18.13
2022-12-27T20:21:43.441Z,16.80
2022-12-27T20:24:12.075Z,14.70
2022-12-27T20:26:39.327Z,13.48
2022-12-27T20:29:05.930Z,17.35
2022-12-27T20:31:32.599Z,13.90
2022-12-27T20:33:59.229Z,18.02
2022-12-27T20:36:25.892Z,13.93
2022-12-27T20:38:52.493Z,13.00
2022-12-27T20:41:20.872Z,13.98
2022-12-27T20:43:47.484Z,17.08
2022-12-27T20:46:17.002Z,31.17
2022-12-27T20:48:45.344Z,19.60
2022-12-27T20:51:17.885Z,14.23
2022-12-27T20:53:46.771Z,19.90
2022-12-27T20:56:14.059Z,10.70
2022-12-27T20:58:40.659Z,13.52
2022-12-27T21:01:19.599Z,14.00
2022-12-27T21:03:46.460Z,9.07
2022-12-27T21:06:16.210Z,10.15
2022-12-27T21:08:49.188Z,8.75
2022-12-27T21:11:23.942Z,11.73
2022-12-27T21:13:50.623Z,10.30
2022-12-27T21:16:23.630Z,10.90
2022-12-27T21:18:50.957Z,12.70
2022-12-27T21:21:21.513Z,14.02
2022-12-27T21:23:49.547Z,12.03
2022-12-27T21:26:21.821Z,9.55
2022-12-27T21:28:48.573Z,12.05
2022-12-27T21:31:16.666Z,10.18
2022-12-27T21:33:43.890Z,11.05
2022-12-27T21:36:16.061Z,15.20
2022-12-27T21:38:43.301Z,16.10
2022-12-27T21:41:12.066Z,11.63
2022-12-27T21:43:38.962Z,10.02
2022-12-27T21:46:08.136Z,11.68
2022-12-27T21:48:38.346Z,13.15
2022-12-27T21:51:12.175Z,11.38
2022-12-27T21:53:39.320Z,13.48
2022-12-27T21:56:06.652Z,16.92
2022-12-27T21:58:36.438Z,19.30
2022-12-27T22:01:15.645Z,17.23
2022-12-27T22:03:45.048Z,17.17
2022-12-27T22:06:13.931Z,11.77
2022-12-27T22:08:42.530Z,12.73
2022-12-27T22:11:09.315Z,13.15
2022-12-27T22:13:37.283Z,14.40
2022-12-27T22:16:06.410Z,16.05
2022-12-27T22:18:34.875Z,12.20
2022-12-27T22:21:04.500Z,11.02
2022-12-27T22:23:39.202Z,13.05
2022-12-27T22:26:12.708Z,12.10
2022-12-27T22:28:40.154Z,11.15
2022-12-27T22:31:08.776Z,10.57
2022-12-27T22:33:36.716Z,7.50
2022-12-27T22:36:12.045Z,8.13
2022-12-27T22:38:38.733Z,9.07
2022-12-27T22:41:15.530Z,14.07
2022-12-27T22:43:43.730Z,8.05
2022-12-27T22:46:13.033Z,8.40
2022-12-27T22:48:40.320Z,11.50
2022-12-27T22:51:07.886Z,8.85
2022-12-27T22:53:35.078Z,8.25
2022-12-27T22:56:02.053Z,6.45
2022-12-27T22:58:31.167Z,9.27
2022-12-27T23:00:58.779Z,6.85
2022-12-27T23:03:26.253Z,9.82
2022-12-27T23:06:02.934Z,10.25
2022-12-27T23:08:29.807Z,7.50
2022-12-27T23:11:03.365Z,6.38
2022-12-27T23:13:30.003Z,6.13
2022-12-27T23:16:01.046Z,7.38
2022-12-27T23:18:28.467Z,8.52
2022-12-27T23:21:22.707Z,7.35
2022-12-27T23:23:42.559Z,5.63
2022-12-27T23:26:15.248Z,7.40
2022-12-27T23:28:43.948Z,5.60
2022-12-27T23:31:12.568Z,7.28
2022-12-27T23:33:40.497Z,7.15
2022-12-27T23:36:07.968Z,12.00
2022-12-27T23:38:35.038Z,5.32
2022-12-27T23:41:04.537Z,6.00
2022-12-27T23:43:54.258Z,5.88
2022-12-27T23:46:24.210Z,7.38
2022-12-27T23:48:51.612Z,9.35
2022-12-27T23:51:19.519Z,12.95
2022-12-27T23:53:46.535Z,7.10
2022-12-27T23:56:30.724Z,4.80
2022-12-27T23:59:00.559Z,5.60
